This is the latest recevied weather packets stored in our database for station/object HS5SQI-2. If no packets are shown the sender has not sent any weather packets the latest 10 day(s).
| Time | Temp. | Humidity | Pressure | Rain* | Wind** | Luminosity | Snow |
|---|---|---|---|---|---|---|---|
| 1777920302 | 28.33° C | 84% | 1008 hPa | - | - | 0 W/m² | - |
| 1777919680 | 29.44° C | 81% | 1008 hPa | - | - | 0 W/m² | - |
| 1777919058 | 28.33° C | 84% | 1008 hPa | - | - | 0 W/m² | - |
| 1777918436 | 28.89° C | 82% | 1008 hPa | - | - | 0 W/m² | - |
| 1777917814 | 29.44° C | 80% | 1008 hPa | - | - | 0 W/m² | - |
| 1777917192 | 29.44° C | 80% | 1008 hPa | - | - | 0 W/m² | - |
| 1777916570 | 29.44° C | 79% | 1008 hPa | - | - | 0 W/m² | - |
| 1777915949 | 29.44° C | 81% | 1009 hPa | - | - | 0 W/m² | - |
| 1777915326 | 27.78° C | 88% | 1009 hPa | - | - | 0 W/m² | - |
| 1777914704 | 28.33° C | 85% | 1009 hPa | - | - | 0 W/m² | - |
| 1777914082 | 29.44° C | 81% | 1010 hPa | - | - | 0 W/m² | - |
| 1777913460 | 28.89° C | 87% | 1010 hPa | - | - | 0 W/m² | - |
| 1777912838 | 28.89° C | 85% | 1010 hPa | - | - | 0 W/m² | - |
| 1777912216 | 29.44° C | 83% | 1010 hPa | - | - | 0 W/m² | - |
| 1777911594 | 30° C | 82% | 1010 hPa | - | - | 0 W/m² | - |
| 1777910972 | 30.56° C | 83% | 1010 hPa | - | - | 0 W/m² | - |
| 1777910350 | 30.56° C | 82% | 1010 hPa | - | - | 0 W/m² | - |
| 1777909728 | 30.56° C | 80% | 1009 hPa | - | - | 0 W/m² | - |
| 1777909106 | 30.56° C | 79% | 1009 hPa | - | - | 0 W/m² | - |
| 1777908484 | 31.11° C | 78% | 1010 hPa | - | - | 0 W/m² | - |
| 1777907862 | 30.56° C | 81% | 1009 hPa | - | - | 0 W/m² | - |
| 1777907240 | 30.56° C | 79% | 1009 hPa | - | - | 0 W/m² | - |
| 1777906618 | 30.56° C | 80% | 1009 hPa | - | - | 0 W/m² | - |
| 1777905996 | 30.56° C | 81% | 1009 hPa | - | - | 0 W/m² | - |
| 1777905374 | 30.56° C | 80% | 1009 hPa | - | - | 0 W/m² | - |
* Rain since midnight (hover to see other rain measurements)
** Current wind speed in m/s (hover to see current wind gust speed)